createdAt,value
2023-02-25T00:00:55.008Z,4.40
2023-02-25T00:03:23.745Z,3.87
2023-02-25T00:05:56.820Z,3.80
2023-02-25T00:08:26.053Z,3.80
2023-02-25T00:10:58.765Z,4.20
2023-02-25T00:13:26.799Z,5.30
2023-02-25T00:16:03.172Z,4.00
2023-02-25T00:18:31.981Z,3.97
2023-02-25T00:21:04.987Z,3.90
2023-02-25T00:23:34.272Z,3.80
2023-02-25T00:26:02.999Z,4.67
2023-02-25T00:28:33.112Z,3.90
2023-02-25T00:31:01.334Z,4.37
2023-02-25T00:33:31.602Z,4.27
2023-02-25T00:36:03.341Z,3.67
2023-02-25T00:38:31.480Z,4.37
2023-02-25T00:41:08.956Z,3.57
2023-02-25T00:43:42.613Z,3.80
2023-02-25T00:46:13.876Z,5.03
2023-02-25T00:48:42.151Z,2.80
2023-02-25T00:51:14.705Z,3.70
2023-02-25T00:53:43.033Z,3.20
2023-02-25T00:56:16.623Z,4.53
2023-02-25T00:58:45.101Z,4.10
2023-02-25T01:01:23.445Z,3.50
2023-02-25T01:03:57.302Z,4.37
2023-02-25T01:06:25.559Z,4.50
2023-02-25T01:08:54.843Z,3.70
2023-02-25T01:11:27.728Z,3.50
2023-02-25T01:13:56.299Z,4.47
2023-02-25T01:16:27.486Z,4.07
2023-02-25T01:18:57.583Z,3.13
2023-02-25T01:21:27.739Z,3.87
2023-02-25T01:23:58.886Z,3.27
2023-02-25T01:26:29.887Z,3.23
2023-02-25T01:28:58.412Z,3.50
2023-02-25T01:31:29.521Z,3.40
2023-02-25T01:33:58.621Z,3.23
2023-02-25T01:36:32.301Z,3.20
2023-02-25T01:39:01.943Z,3.87
2023-02-25T01:41:32.257Z,3.20
2023-02-25T01:44:12.406Z,4.07
2023-02-25T01:46:44.119Z,3.47
2023-02-25T01:49:14.841Z,3.17
2023-02-25T01:51:47.514Z,3.30
2023-02-25T01:54:19.341Z,4.97
2023-02-25T01:56:51.638Z,3.83
2023-02-25T01:59:29.169Z,3.57
2023-02-25T02:02:00.342Z,3.20
2023-02-25T02:04:28.303Z,3.30
2023-02-25T02:06:56.939Z,4.20
2023-02-25T02:09:27.962Z,3.90
2023-02-25T02:12:07.105Z,2.90
2023-02-25T02:14:44.386Z,5.20
2023-02-25T02:17:21.750Z,4.40
2023-02-25T02:20:07.215Z,3.73
2023-02-25T02:22:40.229Z,4.07
2023-02-25T02:25:27.072Z,3.93
2023-02-25T02:28:20.987Z,3.73
2023-02-25T02:31:14.415Z,3.87
2023-02-25T02:33:50.712Z,3.80
2023-02-25T02:36:25.140Z,2.43
2023-02-25T02:38:58.404Z,3.60
2023-02-25T02:41:34.122Z,3.50
2023-02-25T02:44:06.969Z,2.23
2023-02-25T02:46:39.465Z,2.43
2023-02-25T02:49:12.349Z,3.47
2023-02-25T02:51:45.211Z,2.10
2023-02-25T02:54:15.185Z,2.60
2023-02-25T02:56:48.751Z,2.33
2023-02-25T02:59:20.809Z,2.37
2023-02-25T03:01:57.519Z,1.87
2023-02-25T03:04:29.139Z,2.07
2023-02-25T03:07:01.261Z,2.40
2023-02-25T03:09:37.297Z,2.20
2023-02-25T03:12:11.158Z,2.50
2023-02-25T03:14:39.632Z,1.63
2023-02-25T03:17:15.064Z,1.40
2023-02-25T03:19:46.172Z,2.00
2023-02-25T03:22:18.176Z,1.40
2023-02-25T03:24:50.066Z,1.60
2023-02-25T03:27:27.828Z,2.23
2023-02-25T03:29:58.504Z,1.67
2023-02-25T03:32:30.959Z,1.80
2023-02-25T03:35:04.391Z,1.60
2023-02-25T03:37:33.999Z,1.70
2023-02-25T03:40:10.812Z,2.13
2023-02-25T03:42:44.186Z,1.83
2023-02-25T03:45:15.597Z,1.83
2023-02-25T03:47:45.006Z,1.87
2023-02-25T03:50:17.588Z,2.00
2023-02-25T03:52:45.459Z,1.70
2023-02-25T03:55:24.413Z,2.07
2023-02-25T03:57:53.084Z,1.60
2023-02-25T04:00:23.445Z,1.60
2023-02-25T04:02:55.995Z,1.60
2023-02-25T04:05:28.121Z,1.57
2023-02-25T04:07:58.617Z,2.50
2023-02-25T04:10:30.845Z,1.77
2023-02-25T04:12:59.057Z,2.23
2023-02-25T04:15:29.511Z,1.80
2023-02-25T04:17:58.723Z,1.97
2023-02-25T04:20:30.436Z,2.00
2023-02-25T04:22:58.324Z,1.83
2023-02-25T04:25:26.903Z,1.57
2023-02-25T04:27:54.750Z,2.37
2023-02-25T04:30:26.899Z,2.40
2023-02-25T04:32:58.587Z,1.60
2023-02-25T04:35:30.327Z,1.90
2023-02-25T04:38:00.990Z,1.37
2023-02-25T04:40:29.095Z,2.00
2023-02-25T04:42:59.880Z,1.33
2023-02-25T04:45:29.395Z,1.50
2023-02-25T04:47:58.108Z,1.63
2023-02-25T04:50:27.713Z,1.83
2023-02-25T04:52:55.862Z,1.23
2023-02-25T04:55:25.795Z,0.90
2023-02-25T04:57:53.676Z,0.90
2023-02-25T05:00:24.363Z,0.90
2023-02-25T05:02:52.942Z,1.30
2023-02-25T05:05:26.373Z,0.73
2023-02-25T05:07:58.810Z,1.07
2023-02-25T05:10:27.064Z,1.47
2023-02-25T05:12:57.097Z,0.90
2023-02-25T05:15:28.258Z,1.23
2023-02-25T05:17:56.077Z,0.80
2023-02-25T05:20:27.087Z,1.40
2023-02-25T05:22:56.714Z,1.33
2023-02-25T05:25:25.708Z,1.50
2023-02-25T05:27:56.026Z,1.17
2023-02-25T05:30:23.902Z,1.20
2023-02-25T05:32:54.585Z,1.10
2023-02-25T05:35:22.527Z,1.60
2023-02-25T05:37:52.111Z,1.23
2023-02-25T05:40:23.910Z,1.23
2023-02-25T05:42:59.876Z,2.30
2023-02-25T05:45:27.971Z,1.63
2023-02-25T05:47:57.446Z,1.30
2023-02-25T05:50:25.447Z,1.23
2023-02-25T05:52:54.310Z,0.97
2023-02-25T05:55:24.235Z,1.80
2023-02-25T05:57:52.114Z,1.27
2023-02-25T06:00:21.620Z,1.57
2023-02-25T06:02:50.833Z,1.50
2023-02-25T06:05:21.627Z,1.33
2023-02-25T06:07:54.164Z,1.60
2023-02-25T06:10:23.403Z,0.90
2023-02-25T06:12:58.450Z,1.87
2023-02-25T06:15:29.167Z,1.53
2023-02-25T06:17:58.231Z,1.27
2023-02-25T06:20:30.884Z,1.30
2023-02-25T06:22:59.652Z,1.43
2023-02-25T06:25:30.329Z,1.63
2023-02-25T06:27:58.238Z,1.90
2023-02-25T06:30:28.332Z,1.10
2023-02-25T06:32:57.698Z,1.00
2023-02-25T06:35:26.018Z,1.60
2023-02-25T06:37:57.725Z,1.30
2023-02-25T06:40:33.574Z,1.27
2023-02-25T06:43:02.529Z,1.40
2023-02-25T06:45:31.102Z,1.60
2023-02-25T06:48:03.995Z,1.60
2023-02-25T06:50:34.338Z,1.43
2023-02-25T06:53:02.278Z,1.87
2023-02-25T06:55:30.538Z,1.80
2023-02-25T06:58:01.079Z,1.40
2023-02-25T07:00:29.140Z,1.73
2023-02-25T07:02:57.326Z,1.27
2023-02-25T07:05:29.040Z,1.43
2023-02-25T07:07:56.865Z,1.80
2023-02-25T07:10:25.099Z,1.00
2023-02-25T07:12:55.756Z,0.97
2023-02-25T07:15:25.001Z,1.40
2023-02-25T07:17:52.923Z,1.37
2023-02-25T07:20:25.397Z,1.67
2023-02-25T07:22:53.239Z,1.20
2023-02-25T07:25:26.389Z,1.20
2023-02-25T07:27:55.003Z,1.00
2023-02-25T07:30:31.328Z,1.23
2023-02-25T07:33:03.001Z,0.97
2023-02-25T07:35:31.250Z,0.80
2023-02-25T07:38:02.085Z,1.17
2023-02-25T07:40:29.977Z,0.93
2023-02-25T07:42:59.220Z,1.13
2023-02-25T07:45:28.437Z,1.10
2023-02-25T07:47:58.419Z,1.60
2023-02-25T07:50:28.223Z,0.97
2023-02-25T07:53:00.898Z,1.10
2023-02-25T07:55:34.373Z,0.93
2023-02-25T07:58:09.292Z,1.27
2023-02-25T08:00:39.605Z,1.50
2023-02-25T08:03:09.825Z,1.20
2023-02-25T08:05:40.190Z,1.70
2023-02-25T08:08:10.767Z,1.97
2023-02-25T08:10:39.069Z,1.27
2023-02-25T08:13:14.249Z,1.30
2023-02-25T08:15:50.613Z,0.93
2023-02-25T08:18:19.790Z,1.23
2023-02-25T08:20:48.294Z,1.10
2023-02-25T08:23:16.649Z,1.70
2023-02-25T08:25:44.978Z,1.80
2023-02-25T08:28:14.028Z,1.17
2023-02-25T08:30:43.838Z,1.30
2023-02-25T08:33:11.868Z,1.27
2023-02-25T08:35:39.749Z,1.50
2023-02-25T08:38:08.052Z,1.57
2023-02-25T08:40:35.890Z,1.43
2023-02-25T08:43:11.296Z,1.00
2023-02-25T08:45:47.162Z,1.20
2023-02-25T08:48:17.086Z,2.00
2023-02-25T08:50:49.796Z,1.20
2023-02-25T08:53:17.710Z,1.33
2023-02-25T08:55:51.051Z,1.67
2023-02-25T08:58:19.214Z,1.30
2023-02-25T09:00:50.480Z,1.30
2023-02-25T09:03:19.038Z,1.00
2023-02-25T09:05:52.889Z,1.10
2023-02-25T09:08:21.055Z,1.20
2023-02-25T09:10:55.092Z,0.90
2023-02-25T09:13:26.750Z,1.27
2023-02-25T09:16:00.139Z,1.13
2023-02-25T09:18:28.683Z,1.40
2023-02-25T09:20:59.541Z,0.80
2023-02-25T09:23:29.691Z,0.93
2023-02-25T09:26:02.989Z,0.87
2023-02-25T09:28:32.669Z,0.87
2023-02-25T09:31:02.606Z,0.70
2023-02-25T09:33:38.396Z,0.60
2023-02-25T09:36:09.068Z,0.70
2023-02-25T09:38:37.129Z,0.83
2023-02-25T09:41:11.030Z,0.50
2023-02-25T09:43:42.498Z,0.50
2023-02-25T09:46:19.006Z,0.90
2023-02-25T09:48:54.100Z,0.73
2023-02-25T09:51:24.730Z,0.87
2023-02-25T09:53:56.308Z,1.43
2023-02-25T09:56:28.344Z,0.60
2023-02-25T09:58:58.421Z,0.50
2023-02-25T10:01:34.988Z,0.60
2023-02-25T10:04:09.414Z,0.90
2023-02-25T10:06:39.554Z,0.83
2023-02-25T10:09:17.076Z,1.00
2023-02-25T10:11:53.545Z,1.10
2023-02-25T10:14:48.033Z,1.00
2023-02-25T10:17:23.866Z,1.40
2023-02-25T10:20:03.113Z,0.90
2023-02-25T10:22:40.373Z,1.30
2023-02-25T10:25:17.022Z,1.00
2023-02-25T10:27:48.147Z,1.53
2023-02-25T10:30:21.206Z,1.07
2023-02-25T10:32:51.813Z,1.07
2023-02-25T10:35:24.166Z,0.90
2023-02-25T10:37:55.018Z,1.23
2023-02-25T10:40:24.894Z,1.20
2023-02-25T10:42:57.381Z,0.60
2023-02-25T10:45:31.466Z,0.80
2023-02-25T10:48:05.887Z,0.90
2023-02-25T10:50:45.549Z,1.07
2023-02-25T10:53:17.030Z,1.33
2023-02-25T10:55:54.866Z,0.67
2023-02-25T10:58:47.812Z,0.80
2023-02-25T11:01:20.400Z,1.03
2023-02-25T11:03:59.366Z,0.73
2023-02-25T11:06:29.380Z,0.83
2023-02-25T11:09:02.100Z,1.20
2023-02-25T11:11:32.680Z,1.10
2023-02-25T11:14:03.538Z,0.87
2023-02-25T11:16:36.585Z,1.13
2023-02-25T11:19:15.136Z,0.90
2023-02-25T11:21:48.882Z,1.00
2023-02-25T11:24:23.486Z,1.13
2023-02-25T11:26:52.860Z,1.30
2023-02-25T11:29:26.174Z,1.90
2023-02-25T11:31:59.722Z,1.60
2023-02-25T11:34:32.943Z,1.10
2023-02-25T11:37:27.334Z,0.60
2023-02-25T11:39:59.279Z,1.13
2023-02-25T11:42:30.257Z,1.17
2023-02-25T11:45:04.952Z,1.10
2023-02-25T11:47:35.185Z,1.40
2023-02-25T11:50:21.098Z,1.10
2023-02-25T11:53:02.500Z,1.00
2023-02-25T11:55:42.852Z,0.90
2023-02-25T11:58:19.999Z,1.77
2023-02-25T12:00:55.320Z,1.00
2023-02-25T12:03:41.650Z,1.17
2023-02-25T12:06:20.112Z,1.57
2023-02-25T12:09:19.151Z,1.37
2023-02-25T12:12:12.315Z,1.47
2023-02-25T12:15:19.394Z,2.00
2023-02-25T12:18:18.009Z,1.47
2023-02-25T12:21:05.813Z,1.20
2023-02-25T12:23:57.471Z,2.07
2023-02-25T12:26:37.928Z,1.60
2023-02-25T12:29:13.319Z,2.00
2023-02-25T12:31:58.135Z,2.30
2023-02-25T12:34:38.784Z,1.60
2023-02-25T12:37:27.209Z,1.33
2023-02-25T12:40:05.457Z,1.13
2023-02-25T12:42:44.038Z,1.93
2023-02-25T12:45:42.861Z,2.40
2023-02-25T12:48:56.145Z,1.57
2023-02-25T12:51:41.801Z,1.37
2023-02-25T12:54:26.645Z,1.50
2023-02-25T12:57:05.071Z,2.27
2023-02-25T12:59:50.861Z,1.90
2023-02-25T13:02:52.739Z,1.20
2023-02-25T13:05:50.261Z,1.67
2023-02-25T13:08:45.074Z,1.90
2023-02-25T13:11:22.444Z,1.77
2023-02-25T13:14:22.025Z,1.50
2023-02-25T13:17:29.077Z,1.83
2023-02-25T13:20:27.277Z,1.90
2023-02-25T13:23:05.898Z,1.73
2023-02-25T13:25:51.777Z,1.33
2023-02-25T13:28:33.620Z,2.20
2023-02-25T13:31:08.438Z,1.40
2023-02-25T13:33:49.853Z,1.20
2023-02-25T13:36:37.905Z,1.80
2023-02-25T13:39:24.650Z,1.43
2023-02-25T13:42:16.659Z,0.83
2023-02-25T13:45:03.415Z,1.13
2023-02-25T13:47:44.795Z,1.53
2023-02-25T13:50:36.959Z,1.13
2023-02-25T13:53:20.844Z,1.97
2023-02-25T13:56:07.300Z,2.20
2023-02-25T13:58:49.713Z,1.77
2023-02-25T14:01:28.738Z,0.90
2023-02-25T14:04:50.373Z,1.33
2023-02-25T14:07:34.143Z,1.13
2023-02-25T14:10:18.426Z,1.33
2023-02-25T14:13:04.629Z,1.40
2023-02-25T14:15:44.648Z,1.70
2023-02-25T14:18:33.711Z,0.93
2023-02-25T14:21:12.924Z,0.97
2023-02-25T14:23:48.643Z,1.13
2023-02-25T14:26:25.744Z,1.20
2023-02-25T14:29:12.273Z,1.07
2023-02-25T14:31:50.619Z,1.50
2023-02-25T14:34:31.027Z,1.37
2023-02-25T14:37:22.308Z,1.30
2023-02-25T14:40:08.806Z,1.60
2023-02-25T14:43:00.147Z,1.00
2023-02-25T14:45:33.069Z,1.80
2023-02-25T14:48:04.142Z,0.90
2023-02-25T14:50:37.978Z,1.30
2023-02-25T14:53:26.206Z,1.20
2023-02-25T14:56:05.302Z,1.23
2023-02-25T14:59:08.892Z,0.97
2023-02-25T15:01:46.526Z,1.97
2023-02-25T15:04:50.880Z,1.03
2023-02-25T15:07:28.037Z,1.77
2023-02-25T15:10:20.653Z,0.90
2023-02-25T15:13:03.748Z,0.90
2023-02-25T15:16:01.246Z,1.50
2023-02-25T15:19:16.876Z,1.50
2023-02-25T15:21:49.798Z,1.30
2023-02-25T15:24:40.842Z,1.33
2023-02-25T15:27:56.717Z,1.37
2023-02-25T15:30:29.040Z,2.73
2023-02-25T15:33:16.883Z,1.60
2023-02-25T15:36:01.555Z,1.07
2023-02-25T15:38:46.692Z,1.57
2023-02-25T15:41:43.467Z,0.93
2023-02-25T15:44:44.271Z,1.00
2023-02-25T15:47:44.781Z,1.50
2023-02-25T15:50:49.079Z,1.67
2023-02-25T15:53:38.242Z,1.00
2023-02-25T15:56:40.540Z,1.23
2023-02-25T15:59:08.870Z,1.40
2023-02-25T16:01:44.122Z,2.07
2023-02-25T16:04:44.280Z,1.00
2023-02-25T16:07:20.300Z,1.23
2023-02-25T16:09:54.931Z,1.83
2023-02-25T16:12:26.403Z,1.40
2023-02-25T16:14:57.616Z,1.80
2023-02-25T16:17:30.420Z,1.23
2023-02-25T16:20:01.347Z,1.90
2023-02-25T16:22:33.685Z,1.30
2023-02-25T16:25:02.779Z,1.30
2023-02-25T16:27:44.339Z,2.97
2023-02-25T16:30:16.804Z,1.87
2023-02-25T16:32:52.704Z,3.30
2023-02-25T16:35:27.328Z,2.73
2023-02-25T16:38:10.959Z,2.77
2023-02-25T16:40:40.126Z,2.60
2023-02-25T16:43:13.620Z,2.73
2023-02-25T16:45:46.296Z,4.77
2023-02-25T16:48:17.357Z,3.20
2023-02-25T16:50:51.060Z,3.13
2023-02-25T16:53:25.460Z,3.37
2023-02-25T16:55:59.268Z,3.50
2023-02-25T16:58:29.192Z,4.47
2023-02-25T17:00:59.417Z,3.23
2023-02-25T17:03:33.049Z,3.10
2023-02-25T17:06:19.335Z,3.43
2023-02-25T17:08:52.113Z,4.47
2023-02-25T17:11:25.275Z,2.67
2023-02-25T17:13:56.949Z,3.60
2023-02-25T17:16:31.859Z,4.17
2023-02-25T17:19:03.997Z,1.97
2023-02-25T17:21:37.834Z,3.07
2023-02-25T17:24:14.441Z,2.80
2023-02-25T17:26:43.723Z,1.93
2023-02-25T17:29:14.239Z,2.20
2023-02-25T17:31:47.216Z,1.97
2023-02-25T17:34:28.779Z,2.10
2023-02-25T17:36:57.805Z,1.63
2023-02-25T17:39:31.661Z,1.67
2023-02-25T17:42:01.336Z,1.67
2023-02-25T17:44:47.241Z,2.53
2023-02-25T17:47:22.304Z,1.83
2023-02-25T17:49:53.052Z,2.17
2023-02-25T17:52:26.806Z,2.40
2023-02-25T17:54:59.289Z,1.77
2023-02-25T17:57:31.644Z,1.57
2023-02-25T18:00:04.329Z,2.10
2023-02-25T18:02:37.653Z,1.83
2023-02-25T18:05:29.599Z,1.57
2023-02-25T18:08:07.860Z,1.70
2023-02-25T18:11:04.802Z,1.20
2023-02-25T18:13:36.156Z,1.27
2023-02-25T18:16:38.912Z,1.70
2023-02-25T18:19:36.125Z,1.60
2023-02-25T18:22:05.375Z,1.37
2023-02-25T18:24:35.379Z,2.17
2023-02-25T18:27:27.841Z,1.47
2023-02-25T18:29:59.619Z,2.43
2023-02-25T18:32:27.650Z,1.40
2023-02-25T18:34:58.410Z,1.70
2023-02-25T18:37:26.689Z,1.67
2023-02-25T18:39:54.537Z,1.60
2023-02-25T18:42:26.347Z,1.70
2023-02-25T18:44:57.534Z,1.40
2023-02-25T18:47:29.618Z,1.90
2023-02-25T18:50:01.034Z,1.50
2023-02-25T18:52:32.161Z,1.97
2023-02-25T18:55:00.015Z,1.50
2023-02-25T18:57:30.299Z,1.20
2023-02-25T18:59:58.854Z,1.20
2023-02-25T19:02:31.406Z,1.63
2023-02-25T19:05:08.732Z,1.47
2023-02-25T19:07:39.080Z,1.50
2023-02-25T19:10:08.388Z,1.57
2023-02-25T19:12:39.452Z,1.37
2023-02-25T19:15:12.149Z,1.60
2023-02-25T19:17:47.224Z,1.67
2023-02-25T19:20:18.965Z,1.87
2023-02-25T19:23:02.697Z,1.60
2023-02-25T19:25:31.992Z,1.60
2023-02-25T19:28:03.282Z,1.40
2023-02-25T19:30:33.863Z,1.33
2023-02-25T19:33:04.669Z,1.50
2023-02-25T19:35:33.988Z,2.13
2023-02-25T19:38:02.048Z,1.50
2023-02-25T19:40:32.760Z,2.30
2023-02-25T19:43:06.911Z,1.83
2023-02-25T19:45:41.935Z,2.23
2023-02-25T19:48:10.404Z,1.90
2023-02-25T19:50:44.956Z,1.40
2023-02-25T19:53:13.191Z,1.47
2023-02-25T19:55:41.469Z,1.37
2023-02-25T19:58:12.823Z,1.60
2023-02-25T20:00:45.905Z,1.17
2023-02-25T20:03:20.138Z,1.70
2023-02-25T20:05:48.703Z,1.77
2023-02-25T20:08:16.573Z,2.03
2023-02-25T20:10:46.932Z,1.10
2023-02-25T20:13:17.837Z,2.00
2023-02-25T20:15:45.764Z,1.80
2023-02-25T20:18:13.942Z,2.30
2023-02-25T20:20:43.206Z,1.90
2023-02-25T20:23:13.512Z,1.60
2023-02-25T20:25:43.286Z,1.43
2023-02-25T20:28:11.140Z,1.10
2023-02-25T20:30:40.461Z,1.60
2023-02-25T20:33:09.125Z,1.27
2023-02-25T20:35:37.333Z,1.57
2023-02-25T20:38:15.982Z,1.60
2023-02-25T20:40:44.011Z,2.00
2023-02-25T20:43:15.245Z,1.13
2023-02-25T20:45:45.770Z,1.40
2023-02-25T20:48:28.172Z,1.40
2023-02-25T20:51:01.868Z,1.73
2023-02-25T20:53:30.193Z,1.40
2023-02-25T20:55:58.664Z,1.47
2023-02-25T20:58:26.618Z,1.70
2023-02-25T21:00:59.358Z,1.53
2023-02-25T21:03:27.249Z,1.60
2023-02-25T21:06:04.303Z,2.10
2023-02-25T21:08:35.995Z,1.67
2023-02-25T21:11:06.884Z,2.00
2023-02-25T21:13:36.473Z,1.40
2023-02-25T21:16:19.091Z,1.50
2023-02-25T21:18:57.979Z,1.37
2023-02-25T21:21:28.324Z,1.33
2023-02-25T21:23:56.280Z,1.10
2023-02-25T21:26:24.625Z,1.40
2023-02-25T21:28:53.834Z,1.90
2023-02-25T21:31:23.318Z,1.37
2023-02-25T21:33:57.309Z,1.70
2023-02-25T21:36:35.480Z,1.63
2023-02-25T21:39:07.063Z,1.60
2023-02-25T21:41:36.350Z,2.00
2023-02-25T21:44:07.699Z,1.60
2023-02-25T21:46:37.987Z,1.20
2023-02-25T21:49:12.812Z,1.73
2023-02-25T21:51:41.291Z,1.73
2023-02-25T21:54:13.283Z,1.23
2023-02-25T21:56:41.779Z,1.50
2023-02-25T21:59:09.943Z,1.67
2023-02-25T22:01:42.259Z,1.40
2023-02-25T22:04:11.627Z,1.70
2023-02-25T22:06:39.991Z,1.33
2023-02-25T22:09:08.763Z,1.20
2023-02-25T22:11:40.025Z,1.53
2023-02-25T22:14:09.674Z,1.50
2023-02-25T22:16:45.039Z,1.70
2023-02-25T22:19:12.950Z,1.10
2023-02-25T22:21:41.355Z,1.27
2023-02-25T22:24:09.182Z,1.80
2023-02-25T22:26:37.809Z,1.40
2023-02-25T22:29:07.979Z,1.23
2023-02-25T22:31:36.380Z,1.47
2023-02-25T22:34:08.242Z,1.50
2023-02-25T22:36:41.347Z,1.63
2023-02-25T22:39:13.050Z,1.67
2023-02-25T22:41:42.710Z,1.03
2023-02-25T22:44:14.559Z,1.40
2023-02-25T22:46:42.523Z,1.40
2023-02-25T22:49:15.337Z,2.00
2023-02-25T22:51:45.679Z,1.67
2023-02-25T22:54:20.497Z,1.47
2023-02-25T22:56:49.704Z,2.17
2023-02-25T22:59:17.860Z,1.80
2023-02-25T23:01:45.795Z,1.80
2023-02-25T23:04:17.343Z,1.80
2023-02-25T23:06:47.165Z,1.90
2023-02-25T23:09:18.594Z,1.47
2023-02-25T23:11:49.904Z,1.50
2023-02-25T23:14:19.236Z,1.60
2023-02-25T23:16:47.239Z,1.67
2023-02-25T23:19:23.952Z,1.70
2023-02-25T23:21:52.418Z,1.83
2023-02-25T23:24:20.378Z,2.10
2023-02-25T23:26:50.436Z,2.47
2023-02-25T23:29:18.468Z,1.90
2023-02-25T23:31:52.371Z,1.77
2023-02-25T23:34:25.544Z,2.33
2023-02-25T23:37:09.169Z,2.10
2023-02-25T23:39:38.183Z,1.50
2023-02-25T23:42:09.661Z,2.30
2023-02-25T23:44:37.785Z,2.40
2023-02-25T23:47:05.769Z,1.70
2023-02-25T23:49:38.327Z,2.00
2023-02-25T23:52:08.773Z,1.87
2023-02-25T23:54:36.690Z,1.37
2023-02-25T23:57:04.737Z,1.63
2023-02-25T23:59:34.248Z,1.70
